createdAt,value
2022-08-20T00:00:18.466Z,43.49
2022-08-20T00:01:18.445Z,46.12
2022-08-20T00:02:18.433Z,42.45
2022-08-20T00:03:18.426Z,60.65
2022-08-20T00:04:18.435Z,50.82
2022-08-20T00:05:18.413Z,46.97
2022-08-20T00:06:18.401Z,45.87
2022-08-20T00:07:18.399Z,48.01
2022-08-20T00:08:18.385Z,59.83
2022-08-20T00:09:18.386Z,48.12
2022-08-20T00:10:18.388Z,44.08
2022-08-20T00:11:18.363Z,50.01
2022-08-20T00:12:18.359Z,58.22
2022-08-20T00:13:18.347Z,56.30
2022-08-20T00:14:18.346Z,56.48
2022-08-20T00:15:18.334Z,51.52
2022-08-20T00:16:18.326Z,53.23
2022-08-20T00:17:18.317Z,53.14
2022-08-20T00:18:18.309Z,45.22
2022-08-20T00:19:18.314Z,47.95
2022-08-20T00:20:18.297Z,55.42
2022-08-20T00:21:19.192Z,51.48
2022-08-20T00:22:18.277Z,49.16
2022-08-20T00:23:18.273Z,55.97
2022-08-20T00:24:18.277Z,50.77
2022-08-20T00:25:18.262Z,42.04
2022-08-20T00:26:18.259Z,49.75
2022-08-20T00:27:18.246Z,42.72
2022-08-20T00:28:18.228Z,47.98
2022-08-20T00:29:18.227Z,51.10
2022-08-20T00:30:18.217Z,57.66
2022-08-20T00:33:18.202Z,48.85
2022-08-20T00:34:19.268Z,57.78
2022-08-20T00:35:19.252Z,39.80
2022-08-20T00:36:19.254Z,40.81
2022-08-20T00:37:19.240Z,55.76
2022-08-20T00:38:19.227Z,59.37
2022-08-20T00:39:19.218Z,58.76
2022-08-20T00:40:22.690Z,43.26
2022-08-20T00:41:19.208Z,58.89
2022-08-20T00:42:19.210Z,49.30
2022-08-20T00:43:19.183Z,48.90
2022-08-20T00:44:19.172Z,41.54
2022-08-20T00:45:19.175Z,47.07
2022-08-20T00:46:19.160Z,50.75
2022-08-20T00:47:19.173Z,43.36
2022-08-20T00:48:19.144Z,55.12
2022-08-20T00:49:19.147Z,52.75
2022-08-20T00:50:19.137Z,52.40
2022-08-20T00:51:19.143Z,52.44
2022-08-20T00:52:19.631Z,51.72
2022-08-20T00:53:19.107Z,55.96
2022-08-20T00:54:19.098Z,56.33
2022-08-20T00:55:19.092Z,52.56
2022-08-20T00:56:19.081Z,53.28
2022-08-20T00:57:19.086Z,56.70
2022-08-20T00:58:19.073Z,53.69
2022-08-20T00:59:19.061Z,40.13
2022-08-20T01:00:19.054Z,51.86
2022-08-20T01:01:19.065Z,46.11
2022-08-20T01:02:19.046Z,53.30
2022-08-20T01:03:19.028Z,46.15
2022-08-20T01:04:19.032Z,51.28
2022-08-20T01:05:19.146Z,47.32
2022-08-20T01:06:18.991Z,41.92
2022-08-20T01:07:20.001Z,51.64
2022-08-20T01:08:18.985Z,53.49
2022-08-20T01:09:49.533Z,48.88
2022-08-20T01:10:19.972Z,45.92
2022-08-20T01:11:18.965Z,47.79
2022-08-20T01:12:18.956Z,46.11
2022-08-20T01:13:19.553Z,56.43
2022-08-20T01:14:18.939Z,58.47
2022-08-20T01:15:18.935Z,53.85
2022-08-20T01:16:18.936Z,52.37
2022-08-20T01:17:18.924Z,53.17
2022-08-20T01:18:19.129Z,51.03
2022-08-20T01:19:29.349Z,62.01
2022-08-20T01:20:19.913Z,59.98
2022-08-20T01:21:18.910Z,57.13
2022-08-20T01:22:18.903Z,54.88
2022-08-20T01:23:18.873Z,49.56
2022-08-20T01:24:18.857Z,55.68
2022-08-20T01:25:18.859Z,43.82
2022-08-20T01:26:18.855Z,48.92
2022-08-20T01:27:18.835Z,52.37
2022-08-20T01:28:18.824Z,48.93
2022-08-20T01:29:18.836Z,45.01
2022-08-20T01:30:18.812Z,51.05
2022-08-20T01:31:19.992Z,55.29
2022-08-20T01:32:18.803Z,58.78
2022-08-20T01:33:18.790Z,50.43
2022-08-20T01:34:18.791Z,49.31
2022-08-20T01:35:18.784Z,53.54
2022-08-20T01:36:18.778Z,48.16
2022-08-20T01:37:18.769Z,45.42
2022-08-20T01:38:18.751Z,44.70
2022-08-20T01:39:18.751Z,39.75
2022-08-20T01:40:18.733Z,59.31
2022-08-20T01:41:18.725Z,57.25
2022-08-20T01:42:19.714Z,51.30
2022-08-20T01:43:18.723Z,57.10
2022-08-20T01:44:18.738Z,50.63
2022-08-20T01:45:18.739Z,46.81
2022-08-20T01:46:18.689Z,47.43
2022-08-20T01:47:18.688Z,45.75
2022-08-20T01:48:18.820Z,58.42
2022-08-20T01:49:23.096Z,49.85
2022-08-20T01:50:18.657Z,51.04
2022-08-20T01:51:18.650Z,48.20
2022-08-20T01:52:18.643Z,59.32
2022-08-20T01:53:18.633Z,51.95
2022-08-20T01:54:18.638Z,52.86
2022-08-20T01:55:18.616Z,55.41
2022-08-20T01:56:18.614Z,52.75
2022-08-20T01:57:18.599Z,57.88
2022-08-20T01:58:18.610Z,50.91
2022-08-20T01:59:18.600Z,47.43
2022-08-20T02:00:20.006Z,52.67
2022-08-20T02:01:18.629Z,47.79
2022-08-20T02:02:18.565Z,46.77
2022-08-20T02:03:18.553Z,51.51
2022-08-20T02:04:18.545Z,54.87
2022-08-20T02:05:18.536Z,51.79
2022-08-20T02:06:18.526Z,50.14
2022-08-20T02:07:18.528Z,48.16
2022-08-20T02:08:18.529Z,50.72
2022-08-20T02:09:18.509Z,45.89
2022-08-20T02:10:18.497Z,51.68
2022-08-20T02:11:18.509Z,64.32
2022-08-20T02:12:18.498Z,51.37
2022-08-20T02:13:18.474Z,50.87
2022-08-20T02:14:18.469Z,42.58
2022-08-20T02:15:18.473Z,54.93
2022-08-20T02:16:19.457Z,43.97
2022-08-20T02:17:18.458Z,43.38
2022-08-20T02:18:18.443Z,54.37
2022-08-20T02:19:18.476Z,47.69
2022-08-20T02:20:18.427Z,51.62
2022-08-20T02:21:18.434Z,52.34
2022-08-20T02:22:18.420Z,51.71
2022-08-20T02:23:18.393Z,51.83
2022-08-20T02:24:19.392Z,51.47
2022-08-20T02:25:18.396Z,61.93
2022-08-20T02:26:18.396Z,50.02
2022-08-20T02:27:18.372Z,54.66
2022-08-20T02:28:18.360Z,55.43
2022-08-20T02:29:18.350Z,52.72
2022-08-20T02:30:27.585Z,50.53
2022-08-20T02:31:19.341Z,56.40
2022-08-20T02:32:24.519Z,51.12
2022-08-20T02:33:19.325Z,49.62
2022-08-20T02:34:22.702Z,43.21
2022-08-20T02:35:18.304Z,48.63
2022-08-20T02:36:18.306Z,49.60
2022-08-20T02:37:18.293Z,40.28
2022-08-20T02:38:18.278Z,41.84
2022-08-20T02:39:18.269Z,55.13
2022-08-20T02:40:18.331Z,43.26
2022-08-20T02:41:19.267Z,45.33
2022-08-20T02:42:18.283Z,55.60
2022-08-20T02:43:18.251Z,52.51
2022-08-20T02:44:18.247Z,46.90
2022-08-20T02:45:19.181Z,53.71
2022-08-20T02:46:18.227Z,57.33
2022-08-20T02:47:18.209Z,58.75
2022-08-20T02:48:18.205Z,51.88
2022-08-20T02:49:18.192Z,47.08
2022-08-20T02:50:18.184Z,49.47
2022-08-20T02:51:18.166Z,42.59
2022-08-20T02:52:20.170Z,57.46
2022-08-20T02:53:18.158Z,44.44
2022-08-20T02:54:18.165Z,55.55
2022-08-20T02:55:27.135Z,54.89
2022-08-20T02:56:19.169Z,51.18
2022-08-20T02:57:18.139Z,52.21
2022-08-20T02:58:18.115Z,55.28
2022-08-20T02:59:19.138Z,51.47
2022-08-20T03:00:18.105Z,48.36
2022-08-20T03:01:18.144Z,44.18
2022-08-20T03:02:19.090Z,49.18
2022-08-20T03:03:18.076Z,45.45
2022-08-20T03:04:18.072Z,49.48
2022-08-20T03:05:18.068Z,48.01
2022-08-20T03:06:18.055Z,54.45
2022-08-20T03:07:18.060Z,42.30
2022-08-20T03:08:18.048Z,42.53
2022-08-20T03:09:18.042Z,50.22
2022-08-20T03:10:18.023Z,45.96
2022-08-20T03:11:18.020Z,49.50
2022-08-20T03:12:18.012Z,55.27
2022-08-20T03:13:18.012Z,49.94
2022-08-20T03:14:18.007Z,58.06
2022-08-20T03:15:18.054Z,58.29
2022-08-20T03:16:17.980Z,59.84
2022-08-20T03:17:17.971Z,55.83
2022-08-20T03:18:18.192Z,54.48
2022-08-20T03:19:17.951Z,50.63
2022-08-20T03:20:17.953Z,52.83
2022-08-20T03:21:18.948Z,56.86
2022-08-20T03:22:17.944Z,57.36
2022-08-20T03:23:17.940Z,54.79
2022-08-20T03:24:17.917Z,55.95
2022-08-20T03:25:17.909Z,51.06
2022-08-20T03:26:17.905Z,48.87
2022-08-20T03:27:17.889Z,53.89
2022-08-20T03:28:17.881Z,58.41
2022-08-20T03:29:17.884Z,55.09
2022-08-20T03:30:17.869Z,56.73
2022-08-20T03:31:17.857Z,54.26
2022-08-20T03:32:17.855Z,57.09
2022-08-20T03:33:17.845Z,56.78
2022-08-20T03:34:17.842Z,55.79
2022-08-20T03:35:17.827Z,57.90
2022-08-20T03:36:20.033Z,61.19
2022-08-20T03:37:18.818Z,52.87
2022-08-20T03:38:17.809Z,60.00
2022-08-20T03:39:17.800Z,57.48
2022-08-20T03:40:17.847Z,52.53
2022-08-20T03:41:17.781Z,58.20
2022-08-20T03:42:17.776Z,58.25
2022-08-20T03:43:17.770Z,55.36
2022-08-20T03:44:17.760Z,52.16
2022-08-20T03:45:20.470Z,51.18
2022-08-20T03:46:23.123Z,55.22
2022-08-20T03:47:18.733Z,59.29
2022-08-20T03:48:17.742Z,59.55
2022-08-20T03:49:17.716Z,50.20
2022-08-20T03:50:23.661Z,54.57
2022-08-20T03:51:18.702Z,57.64
2022-08-20T03:52:17.691Z,51.40
2022-08-20T03:53:17.682Z,49.39
2022-08-20T03:54:17.682Z,56.27
2022-08-20T03:55:17.673Z,54.86
2022-08-20T03:56:17.655Z,57.69
2022-08-20T03:57:17.649Z,54.81
2022-08-20T03:58:17.643Z,53.52
2022-08-20T03:59:17.634Z,56.27
2022-08-20T04:00:17.629Z,52.78
2022-08-20T04:01:44.354Z,48.84
2022-08-20T04:02:18.614Z,51.08
2022-08-20T04:03:17.606Z,49.10
2022-08-20T04:04:17.608Z,52.33
2022-08-20T04:05:17.595Z,51.93
2022-08-20T04:06:17.600Z,45.67
2022-08-20T04:07:17.573Z,51.87
2022-08-20T04:08:17.572Z,51.22
2022-08-20T04:09:17.568Z,58.95
2022-08-20T04:10:17.558Z,57.52
2022-08-20T04:11:17.551Z,57.28
2022-08-20T04:12:17.531Z,58.50
2022-08-20T04:13:17.524Z,56.49
2022-08-20T04:14:19.461Z,53.66
2022-08-20T04:15:17.516Z,59.67
2022-08-20T04:16:17.518Z,59.93
2022-08-20T04:17:17.504Z,58.20
2022-08-20T04:18:17.485Z,57.31
2022-08-20T04:19:17.473Z,61.28
2022-08-20T04:20:17.471Z,50.14
2022-08-20T04:21:17.468Z,56.86
2022-08-20T04:22:17.450Z,55.09
2022-08-20T04:23:17.444Z,58.18
2022-08-20T04:24:21.956Z,56.97
2022-08-20T04:25:18.427Z,56.91
2022-08-20T04:26:18.431Z,58.46
2022-08-20T04:27:17.413Z,57.84
2022-08-20T04:28:17.407Z,54.72
2022-08-20T04:29:17.408Z,59.78
2022-08-20T04:30:17.389Z,55.60
2022-08-20T04:31:18.162Z,58.60
2022-08-20T04:32:17.974Z,61.05
2022-08-20T04:33:19.155Z,55.60
2022-08-20T04:34:18.361Z,56.37
2022-08-20T04:35:17.365Z,58.34
2022-08-20T04:36:17.346Z,64.00
2022-08-20T04:37:17.559Z,60.80
2022-08-20T04:38:17.336Z,60.24
2022-08-20T04:39:17.320Z,54.25
2022-08-20T04:40:17.328Z,56.30
2022-08-20T04:41:22.919Z,54.44
2022-08-20T04:42:18.309Z,55.74
2022-08-20T04:43:17.300Z,52.43
2022-08-20T04:44:17.284Z,55.36
2022-08-20T04:45:17.283Z,57.44
2022-08-20T04:46:17.279Z,58.32
2022-08-20T04:47:17.278Z,62.14
2022-08-20T04:48:18.257Z,60.60
2022-08-20T04:49:17.245Z,48.70
2022-08-20T04:50:17.237Z,57.74
2022-08-20T04:51:17.260Z,57.33
2022-08-20T04:52:17.218Z,55.37
2022-08-20T04:53:17.213Z,56.63
2022-08-20T04:54:17.202Z,59.49
2022-08-20T04:55:17.196Z,54.21
2022-08-20T04:56:17.186Z,59.13
2022-08-20T04:57:17.184Z,54.54
2022-08-20T04:58:17.175Z,53.86
2022-08-20T04:59:17.174Z,61.55
2022-08-20T05:00:17.153Z,57.75
2022-08-20T05:01:17.176Z,53.33
2022-08-20T05:02:17.142Z,56.96
2022-08-20T05:03:17.134Z,59.94
2022-08-20T05:04:17.129Z,60.62
2022-08-20T05:05:17.114Z,59.56
2022-08-20T05:06:17.119Z,57.50
2022-08-20T05:07:17.100Z,56.62
2022-08-20T05:08:20.129Z,62.14
2022-08-20T05:09:17.099Z,62.71
2022-08-20T05:10:17.079Z,57.40
2022-08-20T05:11:32.553Z,59.22
2022-08-20T05:12:18.057Z,58.34
2022-08-20T05:13:17.051Z,59.75
2022-08-20T05:14:17.051Z,58.03
2022-08-20T05:15:17.035Z,51.49
2022-08-20T05:16:17.027Z,56.01
2022-08-20T05:17:17.021Z,56.13
2022-08-20T05:18:17.205Z,63.35
2022-08-20T05:19:17.011Z,59.55
2022-08-20T05:20:16.994Z,61.06
2022-08-20T05:21:16.994Z,61.52
2022-08-20T05:22:16.983Z,55.33
2022-08-20T05:23:16.974Z,59.09
2022-08-20T05:24:16.975Z,56.08
2022-08-20T05:25:17.711Z,55.70
2022-08-20T05:26:16.950Z,63.96
2022-08-20T05:27:24.762Z,60.74
2022-08-20T05:28:17.931Z,55.79
2022-08-20T05:29:16.932Z,59.85
2022-08-20T05:30:16.925Z,59.00
2022-08-20T05:31:16.915Z,61.18
2022-08-20T05:32:16.910Z,59.65
2022-08-20T05:33:16.965Z,61.41
2022-08-20T05:34:16.895Z,58.38
2022-08-20T05:35:16.884Z,56.17
2022-08-20T05:36:16.866Z,56.20
2022-08-20T05:37:16.862Z,61.43
2022-08-20T05:38:16.849Z,61.40
2022-08-20T05:39:16.840Z,59.87
2022-08-20T05:40:16.881Z,55.30
2022-08-20T05:41:28.951Z,57.11
2022-08-20T05:42:17.826Z,60.56
2022-08-20T05:43:16.807Z,56.19
2022-08-20T05:44:16.800Z,57.06
2022-08-20T05:45:16.793Z,58.36
2022-08-20T05:46:16.793Z,61.53
2022-08-20T05:47:16.778Z,64.03
2022-08-20T05:48:16.767Z,59.62
2022-08-20T05:49:16.764Z,59.39
2022-08-20T05:50:19.870Z,56.73
2022-08-20T05:51:17.750Z,59.82
2022-08-20T05:52:16.739Z,59.08
2022-08-20T05:53:16.728Z,61.83
2022-08-20T05:54:16.720Z,61.12
2022-08-20T05:55:16.713Z,57.44
2022-08-20T05:56:16.705Z,61.26
2022-08-20T05:57:16.711Z,66.16
2022-08-20T05:58:16.706Z,58.87
2022-08-20T05:59:19.041Z,55.18
2022-08-20T06:00:17.669Z,59.52
2022-08-20T06:01:16.699Z,62.18
2022-08-20T06:02:16.658Z,64.61
2022-08-20T06:03:16.650Z,67.05
2022-08-20T06:04:16.649Z,64.29
2022-08-20T06:05:16.652Z,59.49
2022-08-20T06:06:18.238Z,65.41
2022-08-20T06:07:17.631Z,60.86
2022-08-20T06:08:16.621Z,61.26
2022-08-20T06:09:16.605Z,61.21
2022-08-20T06:10:17.647Z,61.44
2022-08-20T06:11:16.589Z,60.51
2022-08-20T06:12:16.603Z,61.94
2022-08-20T06:13:16.578Z,60.97
2022-08-20T06:14:16.572Z,68.74
2022-08-20T06:15:17.563Z,58.33
2022-08-20T06:16:16.552Z,56.88
2022-08-20T06:17:16.541Z,58.19
2022-08-20T06:18:28.341Z,63.26
2022-08-20T06:19:17.529Z,61.14
2022-08-20T06:20:17.528Z,61.45
2022-08-20T06:21:16.517Z,60.65
2022-08-20T06:22:18.769Z,62.26
2022-08-20T06:23:17.496Z,64.18
2022-08-20T06:24:16.527Z,63.42
2022-08-20T06:25:16.486Z,60.16
2022-08-20T06:26:16.465Z,61.55
2022-08-20T06:27:17.464Z,61.58
2022-08-20T06:28:16.468Z,61.76
2022-08-20T06:29:16.458Z,61.65
2022-08-20T06:30:16.433Z,65.00
2022-08-20T06:31:16.433Z,62.11
2022-08-20T06:32:16.457Z,61.90
2022-08-20T06:33:16.413Z,62.90
2022-08-20T06:34:16.406Z,59.98
2022-08-20T06:35:19.888Z,59.57
2022-08-20T06:36:18.660Z,61.87
2022-08-20T06:37:16.377Z,58.07
2022-08-20T06:38:16.379Z,61.87
2022-08-20T06:39:16.367Z,62.20
2022-08-20T06:40:16.429Z,58.88
2022-08-20T06:41:16.351Z,61.56
2022-08-20T06:42:20.739Z,61.61
2022-08-20T06:43:16.336Z,56.83
2022-08-20T06:44:16.324Z,62.32
2022-08-20T06:45:16.325Z,58.26
2022-08-20T06:46:16.312Z,59.82
2022-08-20T06:47:16.331Z,59.66
2022-08-20T06:48:16.298Z,65.89
2022-08-20T06:49:16.303Z,60.03
2022-08-20T06:50:16.280Z,63.05
2022-08-20T06:51:16.270Z,60.51
2022-08-20T06:52:16.271Z,60.61
2022-08-20T06:53:16.260Z,60.90
2022-08-20T06:54:16.295Z,62.06
2022-08-20T06:55:16.243Z,62.52
2022-08-20T06:56:16.235Z,61.76
2022-08-20T06:57:16.296Z,61.83
2022-08-20T06:58:30.527Z,61.09
2022-08-20T06:59:17.217Z,61.20
2022-08-20T07:00:16.205Z,62.39
2022-08-20T07:01:16.236Z,61.93
2022-08-20T07:02:16.212Z,63.58
2022-08-20T07:03:16.184Z,62.62
2022-08-20T07:04:16.172Z,60.45
2022-08-20T07:05:16.165Z,61.72
2022-08-20T07:06:16.161Z,62.26
2022-08-20T07:07:16.162Z,59.86
2022-08-20T07:08:16.141Z,60.45
2022-08-20T07:09:16.138Z,60.74
2022-08-20T07:10:16.129Z,60.65
2022-08-20T07:11:16.125Z,60.42
2022-08-20T07:12:16.105Z,60.95
2022-08-20T07:13:16.113Z,60.38
2022-08-20T07:14:16.091Z,61.33
2022-08-20T07:15:16.093Z,61.71
2022-08-20T07:16:16.075Z,61.19
2022-08-20T07:17:16.071Z,62.59
2022-08-20T07:18:16.324Z,62.94
2022-08-20T07:19:17.050Z,63.52
2022-08-20T07:20:16.049Z,64.21
2022-08-20T07:21:16.044Z,62.81
2022-08-20T07:22:16.029Z,65.05
2022-08-20T07:23:16.016Z,64.96
2022-08-20T07:24:16.017Z,65.37
2022-08-20T07:25:16.012Z,64.25
2022-08-20T07:26:15.993Z,67.82
2022-08-20T07:27:15.993Z,63.59
2022-08-20T07:28:15.985Z,65.55
2022-08-20T07:29:15.970Z,65.99
2022-08-20T07:30:16.954Z,67.55
2022-08-20T07:31:16.177Z,64.07
2022-08-20T07:32:15.942Z,64.25
2022-08-20T07:33:16.931Z,67.60
2022-08-20T07:34:15.935Z,65.27
2022-08-20T07:35:15.918Z,66.36
2022-08-20T07:36:15.911Z,66.67
2022-08-20T07:37:15.906Z,63.46
2022-08-20T07:38:15.891Z,66.70
2022-08-20T07:39:15.894Z,64.75
2022-08-20T07:40:15.946Z,64.19
2022-08-20T07:41:15.874Z,69.47
2022-08-20T07:42:15.874Z,66.31
2022-08-20T07:43:15.848Z,68.38
2022-08-20T07:44:16.705Z,69.73
2022-08-20T07:45:15.854Z,75.24
2022-08-20T07:46:15.832Z,68.37
2022-08-20T07:47:15.845Z,68.22
2022-08-20T07:48:31.121Z,68.47
2022-08-20T07:49:16.809Z,67.50
2022-08-20T07:50:15.794Z,70.33
2022-08-20T07:51:15.796Z,68.71
2022-08-20T07:52:15.791Z,66.73
2022-08-20T07:53:15.773Z,71.56
2022-08-20T07:54:15.773Z,69.11
2022-08-20T07:55:15.759Z,68.12
2022-08-20T07:56:15.753Z,66.85
2022-08-20T07:57:15.743Z,69.30
2022-08-20T07:58:15.737Z,65.93
2022-08-20T07:59:15.749Z,68.89
2022-08-20T08:00:15.715Z,68.54
2022-08-20T08:01:15.811Z,65.08
2022-08-20T08:02:15.706Z,67.07
2022-08-20T08:03:15.700Z,67.99
2022-08-20T08:04:15.691Z,65.73
2022-08-20T08:05:15.674Z,68.91
2022-08-20T08:06:18.276Z,65.83
2022-08-20T08:07:16.669Z,67.54
2022-08-20T08:08:15.658Z,65.67
2022-08-20T08:09:15.672Z,65.43
2022-08-20T08:10:15.642Z,62.77
2022-08-20T08:11:15.634Z,65.06
2022-08-20T08:12:15.632Z,67.65
2022-08-20T08:13:15.621Z,65.58
2022-08-20T08:14:15.625Z,66.32
2022-08-20T08:15:15.601Z,66.91
2022-08-20T08:16:15.590Z,64.80
2022-08-20T08:17:15.581Z,65.74
2022-08-20T08:18:15.570Z,66.84
2022-08-20T08:19:15.581Z,65.77
2022-08-20T08:20:15.560Z,66.65
2022-08-20T08:21:15.548Z,65.90
2022-08-20T08:22:15.542Z,66.64
2022-08-20T08:23:24.823Z,63.61
2022-08-20T08:24:21.015Z,66.60
2022-08-20T08:25:17.523Z,65.44
2022-08-20T08:26:15.885Z,67.01
2022-08-20T08:27:16.300Z,66.67
2022-08-20T08:28:15.499Z,65.44
2022-08-20T08:29:15.507Z,65.35
2022-08-20T08:30:15.484Z,65.48
2022-08-20T08:31:15.489Z,64.40
2022-08-20T08:32:15.473Z,65.55
2022-08-20T08:33:15.472Z,66.61
2022-08-20T08:34:15.455Z,65.21
2022-08-20T08:35:15.447Z,64.90
2022-08-20T08:36:15.448Z,65.39
2022-08-20T08:37:15.424Z,65.75
2022-08-20T08:38:15.429Z,64.25
2022-08-20T08:39:15.418Z,62.31
2022-08-20T08:40:15.465Z,63.98
2022-08-20T08:41:15.412Z,65.98
2022-08-20T08:42:15.389Z,66.19
2022-08-20T08:43:17.357Z,66.65
2022-08-20T08:44:16.367Z,63.70
2022-08-20T08:45:15.379Z,63.11
2022-08-20T08:46:15.364Z,64.67
2022-08-20T08:47:15.351Z,65.12
2022-08-20T08:48:18.551Z,64.24
2022-08-20T08:49:16.334Z,64.79
2022-08-20T08:50:15.331Z,65.04
2022-08-20T08:51:15.318Z,65.74
2022-08-20T08:52:15.308Z,64.70
2022-08-20T08:53:15.307Z,64.74
2022-08-20T08:54:15.299Z,64.69
2022-08-20T08:55:15.280Z,66.23
2022-08-20T08:56:15.316Z,63.47
2022-08-20T08:57:15.276Z,64.83
2022-08-20T08:58:17.054Z,64.46
2022-08-20T08:59:15.276Z,63.27
2022-08-20T09:00:15.275Z,64.22
2022-08-20T09:01:53.237Z,65.26
2022-08-20T09:02:16.278Z,64.14
2022-08-20T09:03:15.225Z,63.15
2022-08-20T09:04:15.229Z,64.57
2022-08-20T09:05:15.211Z,65.09
2022-08-20T09:06:15.195Z,66.71
2022-08-20T09:07:15.203Z,62.72
2022-08-20T09:08:17.227Z,62.60
2022-08-20T09:09:16.186Z,65.54
2022-08-20T09:10:15.168Z,61.85
2022-08-20T09:11:15.156Z,64.32
2022-08-20T09:12:15.158Z,63.53
2022-08-20T09:13:15.142Z,64.07
2022-08-20T09:14:15.145Z,62.63
2022-08-20T09:15:15.130Z,63.57
2022-08-20T09:16:15.123Z,61.96
2022-08-20T09:17:15.110Z,62.77
2022-08-20T09:18:15.100Z,64.38
2022-08-20T09:19:15.100Z,64.41
2022-08-20T09:20:15.114Z,65.55
2022-08-20T09:21:15.093Z,65.55
2022-08-20T09:22:15.073Z,64.26
2022-08-20T09:23:15.066Z,62.62
2022-08-20T09:24:15.067Z,63.24
2022-08-20T09:25:15.044Z,63.89
2022-08-20T09:26:15.032Z,63.55
2022-08-20T09:27:15.029Z,63.60
2022-08-20T09:28:15.018Z,62.72
2022-08-20T09:29:15.082Z,64.66
2022-08-20T09:30:15.004Z,64.92
2022-08-20T09:31:15.010Z,64.48
2022-08-20T09:32:15.003Z,63.64
2022-08-20T09:33:14.983Z,63.60
2022-08-20T09:34:14.989Z,63.00
2022-08-20T09:35:14.970Z,63.60
2022-08-20T09:36:31.855Z,64.90
2022-08-20T09:37:15.957Z,63.23
2022-08-20T09:38:14.937Z,63.24
2022-08-20T09:39:14.942Z,61.73
2022-08-20T09:40:14.981Z,63.45
2022-08-20T09:41:15.926Z,62.23
2022-08-20T09:42:14.921Z,61.92
2022-08-20T09:43:14.911Z,62.13
2022-08-20T09:44:14.893Z,61.58
2022-08-20T09:45:14.928Z,62.17
2022-08-20T09:46:14.880Z,61.97
2022-08-20T09:47:14.875Z,61.81
2022-08-20T09:48:14.862Z,61.80
2022-08-20T09:49:14.855Z,63.52
2022-08-20T09:50:15.383Z,64.12
2022-08-20T09:51:14.838Z,63.46
2022-08-20T09:52:14.837Z,62.92
2022-08-20T09:53:14.825Z,64.14
2022-08-20T09:54:14.817Z,64.53
2022-08-20T09:55:14.821Z,64.28
2022-08-20T09:56:14.808Z,60.56
2022-08-20T09:57:14.795Z,62.08
2022-08-20T09:58:14.781Z,63.91
2022-08-20T09:59:14.783Z,63.95
2022-08-20T10:00:14.835Z,64.55
2022-08-20T10:01:14.797Z,63.34
2022-08-20T10:02:14.754Z,62.91
2022-08-20T10:03:14.749Z,63.84
2022-08-20T10:04:14.754Z,63.83
2022-08-20T10:05:14.731Z,63.54
2022-08-20T10:06:14.757Z,63.27
2022-08-20T10:07:15.873Z,62.77
2022-08-20T10:08:14.702Z,62.16
2022-08-20T10:09:14.698Z,60.76
2022-08-20T10:10:14.715Z,61.30
2022-08-20T10:11:14.696Z,61.87
2022-08-20T10:12:14.676Z,61.75
2022-08-20T10:13:15.438Z,63.77
2022-08-20T10:14:14.661Z,62.15
2022-08-20T10:15:14.673Z,60.04
2022-08-20T10:16:14.644Z,58.78
2022-08-20T10:17:14.645Z,63.38
2022-08-20T10:18:14.629Z,61.61
2022-08-20T10:19:14.626Z,62.68
2022-08-20T10:20:14.703Z,63.20
2022-08-20T10:21:14.620Z,65.23
2022-08-20T10:22:14.610Z,67.60
2022-08-20T10:23:14.604Z,66.53
2022-08-20T10:24:15.341Z,63.12
2022-08-20T10:25:14.570Z,64.31
2022-08-20T10:26:14.581Z,64.99
2022-08-20T10:27:14.554Z,62.46
2022-08-20T10:28:14.553Z,62.93
2022-08-20T10:29:14.546Z,62.53
2022-08-20T10:30:14.533Z,63.96
2022-08-20T10:31:14.544Z,63.47
2022-08-20T10:32:14.523Z,62.72
2022-08-20T10:33:14.522Z,63.99
2022-08-20T10:34:15.336Z,61.25
2022-08-20T10:35:14.517Z,59.59
2022-08-20T10:36:14.532Z,63.31
2022-08-20T10:37:14.493Z,60.86
2022-08-20T10:38:14.474Z,61.58
2022-08-20T10:39:14.469Z,61.88
2022-08-20T10:40:15.429Z,62.36
2022-08-20T10:41:14.549Z,61.97
2022-08-20T10:42:14.449Z,62.42
2022-08-20T10:43:14.485Z,62.49
2022-08-20T10:44:14.434Z,61.02
2022-08-20T10:45:14.436Z,62.64
2022-08-20T10:46:14.415Z,60.65
2022-08-20T10:47:14.406Z,60.45
2022-08-20T10:48:17.206Z,60.56
2022-08-20T10:49:16.383Z,62.30
2022-08-20T10:50:14.436Z,62.93
2022-08-20T10:51:14.375Z,62.39
2022-08-20T10:52:14.368Z,60.93
2022-08-20T10:53:14.363Z,63.68
2022-08-20T10:54:14.356Z,62.69
2022-08-20T10:55:14.346Z,62.84
2022-08-20T10:56:15.835Z,63.21
2022-08-20T10:57:15.373Z,62.13
2022-08-20T10:58:14.332Z,61.47
2022-08-20T10:59:14.319Z,59.65
2022-08-20T11:00:14.309Z,62.86
2022-08-20T11:01:31.538Z,65.21
2022-08-20T11:02:15.340Z,62.65
2022-08-20T11:03:14.275Z,65.06
2022-08-20T11:04:14.266Z,62.74
2022-08-20T11:05:14.278Z,65.93
2022-08-20T11:06:14.259Z,62.54
2022-08-20T11:07:14.265Z,61.08
2022-08-20T11:08:14.251Z,62.45
2022-08-20T11:09:14.258Z,59.05
2022-08-20T11:10:14.263Z,58.92
2022-08-20T11:11:14.213Z,62.58
2022-08-20T11:12:14.210Z,62.56
2022-08-20T11:13:14.203Z,62.50
2022-08-20T11:14:14.198Z,61.71
2022-08-20T11:15:14.190Z,62.40
2022-08-20T11:16:14.176Z,61.97
2022-08-20T11:17:14.176Z,61.85
2022-08-20T11:18:14.178Z,63.98
2022-08-20T11:19:14.166Z,64.91
2022-08-20T11:20:14.154Z,65.53
2022-08-20T11:21:14.134Z,62.67
2022-08-20T11:22:14.132Z,63.29
2022-08-20T11:23:14.141Z,61.91
2022-08-20T11:24:14.123Z,61.26
2022-08-20T11:25:14.106Z,60.46
2022-08-20T11:26:14.099Z,65.87
2022-08-20T11:27:14.091Z,67.45
2022-08-20T11:28:14.090Z,62.60
2022-08-20T11:29:14.076Z,64.56
2022-08-20T11:30:14.084Z,63.52
2022-08-20T11:31:14.072Z,63.21
2022-08-20T11:32:14.058Z,63.13
2022-08-20T11:33:14.056Z,64.71
2022-08-20T11:34:14.039Z,59.77
2022-08-20T11:35:40.958Z,63.53
2022-08-20T11:36:16.020Z,63.64
2022-08-20T11:37:14.016Z,62.48
2022-08-20T11:38:14.029Z,64.71
2022-08-20T11:39:14.003Z,63.08
2022-08-20T11:40:14.052Z,61.14
2022-08-20T11:41:13.978Z,62.56
2022-08-20T11:42:13.967Z,62.48
2022-08-20T11:43:15.518Z,65.17
2022-08-20T11:44:21.055Z,66.41
2022-08-20T11:45:15.952Z,61.15
2022-08-20T11:46:13.955Z,63.24
2022-08-20T11:47:13.933Z,62.71
2022-08-20T11:48:13.924Z,60.39
2022-08-20T11:49:13.912Z,63.79
2022-08-20T11:50:13.917Z,62.87
2022-08-20T11:51:14.911Z,61.02
2022-08-20T11:52:13.884Z,61.60
2022-08-20T11:53:14.950Z,62.54
2022-08-20T11:54:13.868Z,62.45
2022-08-20T11:55:13.865Z,63.35
2022-08-20T11:56:13.852Z,63.50
2022-08-20T11:57:13.853Z,62.37
2022-08-20T11:58:13.888Z,61.24
2022-08-20T11:59:13.837Z,61.69
2022-08-20T12:00:13.825Z,62.01
2022-08-20T12:01:13.824Z,63.26
2022-08-20T12:02:13.897Z,63.13
2022-08-20T12:03:13.918Z,60.90
2022-08-20T12:04:13.797Z,60.03
2022-08-20T12:05:13.787Z,64.72
2022-08-20T12:06:13.787Z,62.08
2022-08-20T12:07:13.781Z,60.66
2022-08-20T12:08:25.449Z,60.92
2022-08-20T12:09:15.298Z,61.11
2022-08-20T12:10:13.760Z,59.84
2022-08-20T12:11:13.757Z,62.19
2022-08-20T12:12:13.980Z,61.93
2022-08-20T12:13:13.735Z,59.72
2022-08-20T12:14:13.730Z,59.16
2022-08-20T12:15:13.713Z,59.13
2022-08-20T12:16:13.715Z,58.81
2022-08-20T12:17:13.695Z,62.55
2022-08-20T12:18:13.682Z,60.99
2022-08-20T12:19:13.708Z,62.73
2022-08-20T12:20:13.698Z,62.63
2022-08-20T12:21:13.672Z,61.75
2022-08-20T12:22:24.344Z,62.78
2022-08-20T12:23:14.654Z,64.70
2022-08-20T12:24:13.669Z,63.54
2022-08-20T12:25:13.639Z,63.71
2022-08-20T12:26:13.625Z,61.57
2022-08-20T12:27:13.624Z,59.54
2022-08-20T12:28:13.615Z,61.71
2022-08-20T12:29:13.609Z,61.19
2022-08-20T12:30:13.606Z,62.89
2022-08-20T12:31:13.585Z,65.17
2022-08-20T12:32:13.577Z,62.84
2022-08-20T12:33:13.584Z,61.93
2022-08-20T12:34:13.567Z,61.11
2022-08-20T12:35:13.578Z,62.32
2022-08-20T12:36:13.547Z,61.59
2022-08-20T12:37:15.921Z,60.08
2022-08-20T12:38:14.532Z,61.50
2022-08-20T12:39:13.523Z,63.22
2022-08-20T12:40:13.614Z,63.78
2022-08-20T12:41:13.511Z,64.03
2022-08-20T12:42:13.511Z,62.01
2022-08-20T12:43:13.493Z,64.68
2022-08-20T12:44:13.544Z,61.60
2022-08-20T12:45:13.477Z,64.86
2022-08-20T12:46:13.491Z,63.18
2022-08-20T12:47:13.467Z,63.76
2022-08-20T12:48:13.457Z,64.68
2022-08-20T12:49:13.446Z,63.60
2022-08-20T12:50:13.449Z,62.59
2022-08-20T12:51:13.456Z,65.44
2022-08-20T12:52:13.456Z,66.84
2022-08-20T12:53:13.433Z,63.30
2022-08-20T12:54:13.415Z,64.76